sensor_id;sensor_type;location;lat;lon;timestamp;P1;durP1;ratioP1;P2;durP2;ratioP2
73954;SDS011;62306;52.516;13.290;2023-04-25T00:02:23;9.73;;;3.60;;
73954;SDS011;62306;52.516;13.290;2023-04-25T00:04:50;6.75;;;3.08;;
73954;SDS011;62306;52.516;13.290;2023-04-25T00:07:17;8.77;;;3.03;;
73954;SDS011;62306;52.516;13.290;2023-04-25T00:09:44;4.85;;;2.75;;
73954;SDS011;62306;52.516;13.290;2023-04-25T00:12:12;7.05;;;2.80;;
73954;SDS011;62306;52.516;13.290;2023-04-25T00:14:40;4.68;;;2.42;;
73954;SDS011;62306;52.516;13.290;2023-04-25T00:17:07;4.07;;;2.22;;
73954;SDS011;62306;52.516;13.290;2023-04-25T00:19:34;5.70;;;2.83;;
73954;SDS011;62306;52.516;13.290;2023-04-25T00:22:02;5.28;;;2.60;;
73954;SDS011;62306;52.516;13.290;2023-04-25T00:24:30;5.22;;;2.47;;
73954;SDS011;62306;52.516;13.290;2023-04-25T00:26:57;9.63;;;3.42;;
73954;SDS011;62306;52.516;13.290;2023-04-25T00:29:25;9.90;;;3.03;;
73954;SDS011;62306;52.516;13.290;2023-04-25T00:31:52;8.35;;;2.92;;
73954;SDS011;62306;52.516;13.290;2023-04-25T00:34:19;7.18;;;2.35;;
73954;SDS011;62306;52.516;13.290;2023-04-25T00:36:46;8.45;;;2.70;;
73954;SDS011;62306;52.516;13.290;2023-04-25T00:39:13;9.77;;;3.10;;
73954;SDS011;62306;52.516;13.290;2023-04-25T00:41:39;7.72;;;2.88;;
73954;SDS011;62306;52.516;13.290;2023-04-25T00:44:08;5.75;;;2.90;;
73954;SDS011;62306;52.516;13.290;2023-04-25T00:46:38;5.93;;;2.50;;
73954;SDS011;62306;52.516;13.290;2023-04-25T00:49:05;5.53;;;2.50;;
73954;SDS011;62306;52.516;13.290;2023-04-25T00:51:32;7.00;;;2.88;;
73954;SDS011;62306;52.516;13.290;2023-04-25T00:54:00;6.80;;;2.85;;
73954;SDS011;62306;52.516;13.290;2023-04-25T00:56:27;7.07;;;2.78;;
73954;SDS011;62306;52.516;13.290;2023-04-25T00:58:54;5.45;;;2.80;;
73954;SDS011;62306;52.516;13.290;2023-04-25T01:01:22;11.07;;;3.47;;
73954;SDS011;62306;52.516;13.290;2023-04-25T01:03:50;10.02;;;3.35;;
73954;SDS011;62306;52.516;13.290;2023-04-25T01:06:18;10.07;;;3.13;;
73954;SDS011;62306;52.516;13.290;2023-04-25T01:08:45;8.25;;;3.30;;
73954;SDS011;62306;52.516;13.290;2023-04-25T01:11:13;8.27;;;2.97;;
73954;SDS011;62306;52.516;13.290;2023-04-25T01:13:40;8.35;;;3.00;;
73954;SDS011;62306;52.516;13.290;2023-04-25T01:16:07;8.65;;;3.80;;
73954;SDS011;62306;52.516;13.290;2023-04-25T01:18:34;7.00;;;3.60;;
73954;SDS011;62306;52.516;13.290;2023-04-25T01:21:05;7.35;;;2.70;;
73954;SDS011;62306;52.516;13.290;2023-04-25T01:23:34;13.50;;;3.35;;
73954;SDS011;62306;52.516;13.290;2023-04-25T01:26:02;7.00;;;3.10;;
73954;SDS011;62306;52.516;13.290;2023-04-25T01:28:29;8.68;;;3.17;;
73954;SDS011;62306;52.516;13.290;2023-04-25T01:30:56;7.43;;;3.15;;
73954;SDS011;62306;52.516;13.290;2023-04-25T01:33:24;13.77;;;3.75;;
73954;SDS011;62306;52.516;13.290;2023-04-25T01:35:51;9.63;;;3.33;;
73954;SDS011;62306;52.516;13.290;2023-04-25T01:38:20;7.90;;;3.38;;
73954;SDS011;62306;52.516;13.290;2023-04-25T01:40:47;9.35;;;3.40;;
73954;SDS011;62306;52.516;13.290;2023-04-25T01:43:17;9.80;;;3.38;;
73954;SDS011;62306;52.516;13.290;2023-04-25T01:45:44;10.23;;;3.83;;
73954;SDS011;62306;52.516;13.290;2023-04-25T01:48:12;13.52;;;4.50;;
73954;SDS011;62306;52.516;13.290;2023-04-25T01:50:41;6.93;;;3.47;;
73954;SDS011;62306;52.516;13.290;2023-04-25T01:53:09;10.88;;;3.65;;
73954;SDS011;62306;52.516;13.290;2023-04-25T01:55:40;8.02;;;3.22;;
73954;SDS011;62306;52.516;13.290;2023-04-25T01:58:08;9.90;;;3.55;;
73954;SDS011;62306;52.516;13.290;2023-04-25T02:00:38;9.85;;;3.60;;
73954;SDS011;62306;52.516;13.290;2023-04-25T02:03:06;6.25;;;3.42;;
73954;SDS011;62306;52.516;13.290;2023-04-25T02:05:34;7.05;;;4.00;;
73954;SDS011;62306;52.516;13.290;2023-04-25T02:08:03;6.78;;;3.45;;
73954;SDS011;62306;52.516;13.290;2023-04-25T02:10:32;9.60;;;3.78;;
73954;SDS011;62306;52.516;13.290;2023-04-25T02:13:01;9.98;;;3.35;;
73954;SDS011;62306;52.516;13.290;2023-04-25T02:15:29;8.93;;;3.88;;
73954;SDS011;62306;52.516;13.290;2023-04-25T02:17:56;7.68;;;3.42;;
73954;SDS011;62306;52.516;13.290;2023-04-25T02:20:25;6.45;;;3.38;;
73954;SDS011;62306;52.516;13.290;2023-04-25T02:22:53;10.70;;;4.15;;
73954;SDS011;62306;52.516;13.290;2023-04-25T02:25:20;8.75;;;3.67;;
73954;SDS011;62306;52.516;13.290;2023-04-25T02:27:48;9.70;;;4.68;;
73954;SDS011;62306;52.516;13.290;2023-04-25T02:30:17;12.80;;;4.10;;
73954;SDS011;62306;52.516;13.290;2023-04-25T02:32:45;10.77;;;3.78;;
73954;SDS011;62306;52.516;13.290;2023-04-25T02:35:12;14.27;;;4.00;;
73954;SDS011;62306;52.516;13.290;2023-04-25T02:37:40;10.02;;;4.43;;
73954;SDS011;62306;52.516;13.290;2023-04-25T02:40:08;11.32;;;4.65;;
73954;SDS011;62306;52.516;13.290;2023-04-25T02:42:37;8.35;;;3.95;;
73954;SDS011;62306;52.516;13.290;2023-04-25T02:45:05;9.38;;;4.40;;
73954;SDS011;62306;52.516;13.290;2023-04-25T02:47:35;12.77;;;4.25;;
73954;SDS011;62306;52.516;13.290;2023-04-25T02:50:02;17.52;;;4.72;;
73954;SDS011;62306;52.516;13.290;2023-04-25T02:52:30;11.38;;;4.88;;
73954;SDS011;62306;52.516;13.290;2023-04-25T02:54:57;9.82;;;4.55;;
73954;SDS011;62306;52.516;13.290;2023-04-25T02:57:24;12.40;;;5.13;;
73954;SDS011;62306;52.516;13.290;2023-04-25T02:59:51;7.45;;;4.60;;
73954;SDS011;62306;52.516;13.290;2023-04-25T03:02:18;13.73;;;4.45;;
73954;SDS011;62306;52.516;13.290;2023-04-25T03:04:47;13.43;;;4.18;;
73954;SDS011;62306;52.516;13.290;2023-04-25T03:07:14;8.02;;;4.20;;
73954;SDS011;62306;52.516;13.290;2023-04-25T03:09:41;11.05;;;4.15;;
73954;SDS011;62306;52.516;13.290;2023-04-25T03:12:08;13.43;;;4.55;;
73954;SDS011;62306;52.516;13.290;2023-04-25T03:14:35;10.15;;;4.45;;
73954;SDS011;62306;52.516;13.290;2023-04-25T03:17:02;10.20;;;4.20;;
73954;SDS011;62306;52.516;13.290;2023-04-25T03:19:30;14.27;;;4.88;;
73954;SDS011;62306;52.516;13.290;2023-04-25T03:21:59;11.82;;;4.68;;
73954;SDS011;62306;52.516;13.290;2023-04-25T03:24:26;12.30;;;4.90;;
73954;SDS011;62306;52.516;13.290;2023-04-25T03:26:53;13.45;;;4.90;;
73954;SDS011;62306;52.516;13.290;2023-04-25T03:29:20;8.50;;;4.43;;
73954;SDS011;62306;52.516;13.290;2023-04-25T03:31:49;9.30;;;4.95;;
73954;SDS011;62306;52.516;13.290;2023-04-25T03:34:16;13.50;;;4.82;;
73954;SDS011;62306;52.516;13.290;2023-04-25T03:36:44;12.68;;;5.15;;
73954;SDS011;62306;52.516;13.290;2023-04-25T03:39:12;12.75;;;4.90;;
73954;SDS011;62306;52.516;13.290;2023-04-25T03:41:40;9.43;;;4.57;;
73954;SDS011;62306;52.516;13.290;2023-04-25T03:44:07;13.30;;;5.20;;
73954;SDS011;62306;52.516;13.290;2023-04-25T03:46:34;11.68;;;4.80;;
73954;SDS011;62306;52.516;13.290;2023-04-25T03:49:02;9.75;;;4.60;;
73954;SDS011;62306;52.516;13.290;2023-04-25T03:51:29;13.45;;;5.15;;
73954;SDS011;62306;52.516;13.290;2023-04-25T03:53:56;13.57;;;4.40;;
73954;SDS011;62306;52.516;13.290;2023-04-25T03:56:26;12.68;;;4.60;;
73954;SDS011;62306;52.516;13.290;2023-04-25T03:58:54;10.90;;;4.97;;
73954;SDS011;62306;52.516;13.290;2023-04-25T04:01:22;15.20;;;5.13;;
73954;SDS011;62306;52.516;13.290;2023-04-25T04:03:50;18.45;;;5.63;;
73954;SDS011;62306;52.516;13.290;2023-04-25T04:06:17;11.05;;;4.60;;
73954;SDS011;62306;52.516;13.290;2023-04-25T04:08:46;13.60;;;4.60;;
73954;SDS011;62306;52.516;13.290;2023-04-25T04:11:13;11.38;;;4.90;;
73954;SDS011;62306;52.516;13.290;2023-04-25T04:13:42;17.38;;;5.72;;
73954;SDS011;62306;52.516;13.290;2023-04-25T04:16:09;14.68;;;5.53;;
73954;SDS011;62306;52.516;13.290;2023-04-25T04:18:36;8.02;;;3.85;;
73954;SDS011;62306;52.516;13.290;2023-04-25T04:21:03;14.05;;;4.07;;
73954;SDS011;62306;52.516;13.290;2023-04-25T04:23:31;15.40;;;4.55;;
73954;SDS011;62306;52.516;13.290;2023-04-25T04:25:59;15.82;;;4.75;;
73954;SDS011;62306;52.516;13.290;2023-04-25T04:28:27;11.88;;;4.53;;
73954;SDS011;62306;52.516;13.290;2023-04-25T04:30:55;13.05;;;4.63;;
73954;SDS011;62306;52.516;13.290;2023-04-25T04:33:22;7.15;;;4.13;;
73954;SDS011;62306;52.516;13.290;2023-04-25T04:35:50;15.07;;;4.72;;
73954;SDS011;62306;52.516;13.290;2023-04-25T04:38:18;11.75;;;4.75;;
73954;SDS011;62306;52.516;13.290;2023-04-25T04:40:46;14.93;;;4.22;;
73954;SDS011;62306;52.516;13.290;2023-04-25T04:43:15;11.77;;;4.68;;
73954;SDS011;62306;52.516;13.290;2023-04-25T04:45:43;10.65;;;4.47;;
73954;SDS011;62306;52.516;13.290;2023-04-25T04:48:12;12.23;;;4.60;;
73954;SDS011;62306;52.516;13.290;2023-04-25T04:50:39;8.90;;;4.38;;
73954;SDS011;62306;52.516;13.290;2023-04-25T04:53:06;13.27;;;5.07;;
73954;SDS011;62306;52.516;13.290;2023-04-25T04:55:34;13.60;;;4.45;;
73954;SDS011;62306;52.516;13.290;2023-04-25T04:58:01;12.02;;;5.40;;
73954;SDS011;62306;52.516;13.290;2023-04-25T05:00:28;9.48;;;4.97;;
73954;SDS011;62306;52.516;13.290;2023-04-25T05:02:55;13.40;;;4.65;;
73954;SDS011;62306;52.516;13.290;2023-04-25T05:05:24;10.98;;;4.90;;
73954;SDS011;62306;52.516;13.290;2023-04-25T05:07:51;14.70;;;4.93;;
73954;SDS011;62306;52.516;13.290;2023-04-25T05:10:18;11.90;;;5.03;;
73954;SDS011;62306;52.516;13.290;2023-04-25T05:12:46;13.73;;;4.78;;
73954;SDS011;62306;52.516;13.290;2023-04-25T05:15:14;10.00;;;4.60;;
73954;SDS011;62306;52.516;13.290;2023-04-25T05:17:41;9.80;;;4.63;;
73954;SDS011;62306;52.516;13.290;2023-04-25T05:20:08;9.57;;;4.60;;
73954;SDS011;62306;52.516;13.290;2023-04-25T05:22:37;11.15;;;4.13;;
73954;SDS011;62306;52.516;13.290;2023-04-25T05:25:07;8.60;;;4.93;;
73954;SDS011;62306;52.516;13.290;2023-04-25T05:27:34;12.90;;;4.72;;
73954;SDS011;62306;52.516;13.290;2023-04-25T05:30:02;12.57;;;4.63;;
73954;SDS011;62306;52.516;13.290;2023-04-25T05:32:29;11.73;;;4.78;;
73954;SDS011;62306;52.516;13.290;2023-04-25T05:34:57;7.50;;;4.53;;
73954;SDS011;62306;52.516;13.290;2023-04-25T05:37:24;12.05;;;6.07;;
73954;SDS011;62306;52.516;13.290;2023-04-25T05:39:53;12.90;;;5.75;;
73954;SDS011;62306;52.516;13.290;2023-04-25T05:42:20;14.77;;;5.22;;
73954;SDS011;62306;52.516;13.290;2023-04-25T05:44:47;12.32;;;5.45;;
73954;SDS011;62306;52.516;13.290;2023-04-25T05:47:14;12.00;;;4.72;;
73954;SDS011;62306;52.516;13.290;2023-04-25T05:49:41;13.45;;;4.82;;
73954;SDS011;62306;52.516;13.290;2023-04-25T05:52:08;11.85;;;5.18;;
73954;SDS011;62306;52.516;13.290;2023-04-25T05:54:35;17.05;;;5.95;;
73954;SDS011;62306;52.516;13.290;2023-04-25T05:57:03;15.93;;;5.07;;
73954;SDS011;62306;52.516;13.290;2023-04-25T05:59:31;13.60;;;5.88;;
73954;SDS011;62306;52.516;13.290;2023-04-25T06:01:59;14.85;;;6.25;;
73954;SDS011;62306;52.516;13.290;2023-04-25T06:04:26;10.98;;;5.53;;
73954;SDS011;62306;52.516;13.290;2023-04-25T06:06:53;12.25;;;5.70;;
73954;SDS011;62306;52.516;13.290;2023-04-25T06:09:20;22.67;;;6.00;;
73954;SDS011;62306;52.516;13.290;2023-04-25T06:11:47;17.90;;;6.43;;
73954;SDS011;62306;52.516;13.290;2023-04-25T06:14:16;11.60;;;5.68;;
73954;SDS011;62306;52.516;13.290;2023-04-25T06:16:43;14.52;;;5.13;;
73954;SDS011;62306;52.516;13.290;2023-04-25T06:19:10;14.88;;;6.30;;
73954;SDS011;62306;52.516;13.290;2023-04-25T06:21:37;14.77;;;5.95;;
73954;SDS011;62306;52.516;13.290;2023-04-25T06:24:04;13.55;;;5.65;;
73954;SDS011;62306;52.516;13.290;2023-04-25T06:26:31;10.85;;;5.63;;
73954;SDS011;62306;52.516;13.290;2023-04-25T06:28:59;14.65;;;5.63;;
73954;SDS011;62306;52.516;13.290;2023-04-25T06:31:27;16.08;;;6.15;;
73954;SDS011;62306;52.516;13.290;2023-04-25T06:33:57;13.30;;;6.40;;
73954;SDS011;62306;52.516;13.290;2023-04-25T06:36:25;10.75;;;5.47;;
73954;SDS011;62306;52.516;13.290;2023-04-25T06:38:55;13.60;;;6.28;;
73954;SDS011;62306;52.516;13.290;2023-04-25T06:41:22;10.73;;;5.70;;
73954;SDS011;62306;52.516;13.290;2023-04-25T06:43:49;10.00;;;5.15;;
73954;SDS011;62306;52.516;13.290;2023-04-25T06:46:16;12.02;;;5.53;;
73954;SDS011;62306;52.516;13.290;2023-04-25T06:48:45;12.93;;;5.35;;
73954;SDS011;62306;52.516;13.290;2023-04-25T06:51:12;14.30;;;6.13;;
73954;SDS011;62306;52.516;13.290;2023-04-25T06:53:40;11.05;;;5.93;;
73954;SDS011;62306;52.516;13.290;2023-04-25T06:56:07;11.35;;;4.93;;
73954;SDS011;62306;52.516;13.290;2023-04-25T06:58:34;12.23;;;5.35;;
73954;SDS011;62306;52.516;13.290;2023-04-25T07:01:01;13.98;;;5.38;;
73954;SDS011;62306;52.516;13.290;2023-04-25T07:03:28;18.65;;;5.22;;
73954;SDS011;62306;52.516;13.290;2023-04-25T07:05:56;15.73;;;5.88;;
73954;SDS011;62306;52.516;13.290;2023-04-25T07:08:23;8.95;;;4.88;;
73954;SDS011;62306;52.516;13.290;2023-04-25T07:10:50;15.40;;;5.75;;
73954;SDS011;62306;52.516;13.290;2023-04-25T07:13:17;13.52;;;5.72;;
73954;SDS011;62306;52.516;13.290;2023-04-25T07:15:44;10.15;;;5.20;;
73954;SDS011;62306;52.516;13.290;2023-04-25T07:18:13;12.55;;;4.93;;
73954;SDS011;62306;52.516;13.290;2023-04-25T07:20:40;11.85;;;4.40;;
73954;SDS011;62306;52.516;13.290;2023-04-25T07:23:08;12.48;;;4.53;;
73954;SDS011;62306;52.516;13.290;2023-04-25T07:25:35;8.82;;;4.63;;
73954;SDS011;62306;52.516;13.290;2023-04-25T07:28:02;16.83;;;4.95;;
73954;SDS011;62306;52.516;13.290;2023-04-25T07:30:30;12.15;;;4.40;;
73954;SDS011;62306;52.516;13.290;2023-04-25T07:32:57;13.70;;;4.72;;
73954;SDS011;62306;52.516;13.290;2023-04-25T07:35:23;19.38;;;5.40;;
73954;SDS011;62306;52.516;13.290;2023-04-25T07:37:50;16.75;;;4.82;;
73954;SDS011;62306;52.516;13.290;2023-04-25T07:40:18;11.80;;;5.05;;
73954;SDS011;62306;52.516;13.290;2023-04-25T07:42:45;20.38;;;5.20;;
73954;SDS011;62306;52.516;13.290;2023-04-25T07:45:12;27.88;;;5.30;;
73954;SDS011;62306;52.516;13.290;2023-04-25T07:47:40;21.00;;;4.82;;
73954;SDS011;62306;52.516;13.290;2023-04-25T07:50:07;22.98;;;4.97;;
73954;SDS011;62306;52.516;13.290;2023-04-25T07:52:36;16.83;;;4.60;;
73954;SDS011;62306;52.516;13.290;2023-04-25T07:55:03;20.15;;;4.57;;
73954;SDS011;62306;52.516;13.290;2023-04-25T07:57:32;22.98;;;5.28;;
73954;SDS011;62306;52.516;13.290;2023-04-25T07:59:59;22.83;;;5.63;;
73954;SDS011;62306;52.516;13.290;2023-04-25T08:02:25;19.50;;;4.55;;
73954;SDS011;62306;52.516;13.290;2023-04-25T08:04:53;18.35;;;5.30;;
73954;SDS011;62306;52.516;13.290;2023-04-25T08:07:20;23.13;;;4.53;;
73954;SDS011;62306;52.516;13.290;2023-04-25T08:09:47;21.45;;;4.80;;
73954;SDS011;62306;52.516;13.290;2023-04-25T08:12:14;15.98;;;4.53;;
73954;SDS011;62306;52.516;13.290;2023-04-25T08:14:42;19.40;;;5.55;;
73954;SDS011;62306;52.516;13.290;2023-04-25T08:17:09;16.90;;;3.72;;
73954;SDS011;62306;52.516;13.290;2023-04-25T08:19:36;23.00;;;5.28;;
73954;SDS011;62306;52.516;13.290;2023-04-25T08:22:05;20.98;;;4.47;;
73954;SDS011;62306;52.516;13.290;2023-04-25T08:24:32;14.55;;;4.35;;
73954;SDS011;62306;52.516;13.290;2023-04-25T08:26:59;22.50;;;4.15;;
73954;SDS011;62306;52.516;13.290;2023-04-25T08:29:27;19.60;;;3.88;;
73954;SDS011;62306;52.516;13.290;2023-04-25T08:31:55;25.98;;;4.13;;
73954;SDS011;62306;52.516;13.290;2023-04-25T08:34:22;23.77;;;4.70;;
73954;SDS011;62306;52.516;13.290;2023-04-25T08:36:50;17.90;;;4.13;;
73954;SDS011;62306;52.516;13.290;2023-04-25T08:39:17;17.00;;;3.50;;
73954;SDS011;62306;52.516;13.290;2023-04-25T08:41:45;17.88;;;3.63;;
73954;SDS011;62306;52.516;13.290;2023-04-25T08:44:12;18.85;;;3.92;;
73954;SDS011;62306;52.516;13.290;2023-04-25T08:46:40;19.13;;;3.65;;
73954;SDS011;62306;52.516;13.290;2023-04-25T08:49:09;19.63;;;4.00;;
73954;SDS011;62306;52.516;13.290;2023-04-25T08:51:36;11.82;;;3.42;;
73954;SDS011;62306;52.516;13.290;2023-04-25T08:54:10;15.85;;;3.50;;
73954;SDS011;62306;52.516;13.290;2023-04-25T08:56:38;14.20;;;3.35;;
73954;SDS011;62306;52.516;13.290;2023-04-25T08:59:07;14.65;;;3.17;;
73954;SDS011;62306;52.516;13.290;2023-04-25T09:01:34;14.18;;;3.88;;
73954;SDS011;62306;52.516;13.290;2023-04-25T09:04:01;16.20;;;3.80;;
73954;SDS011;62306;52.516;13.290;2023-04-25T09:06:30;14.82;;;3.53;;
73954;SDS011;62306;52.516;13.290;2023-04-25T09:09:00;20.25;;;3.83;;
73954;SDS011;62306;52.516;13.290;2023-04-25T09:11:29;13.57;;;2.85;;
73954;SDS011;62306;52.516;13.290;2023-04-25T09:14:09;14.02;;;3.42;;
73954;SDS011;62306;52.516;13.290;2023-04-25T09:19:27;20.80;;;3.65;;
73954;SDS011;62306;52.516;13.290;2023-04-25T09:21:58;17.80;;;3.95;;
73954;SDS011;62306;52.516;13.290;2023-04-25T09:24:33;12.38;;;3.35;;
73954;SDS011;62306;52.516;13.290;2023-04-25T09:27:02;19.73;;;3.47;;
73954;SDS011;62306;52.516;13.290;2023-04-25T09:29:30;13.82;;;3.78;;
73954;SDS011;62306;52.516;13.290;2023-04-25T09:32:11;12.68;;;2.65;;
73954;SDS011;62306;52.516;13.290;2023-04-25T09:34:42;16.63;;;3.22;;
73954;SDS011;62306;52.516;13.290;2023-04-25T09:37:16;12.10;;;2.75;;
73954;SDS011;62306;52.516;13.290;2023-04-25T09:39:45;13.27;;;3.93;;
73954;SDS011;62306;52.516;13.290;2023-04-25T09:42:12;18.52;;;2.72;;
73954;SDS011;62306;52.516;13.290;2023-04-25T09:44:42;12.60;;;2.80;;
73954;SDS011;62306;52.516;13.290;2023-04-25T09:47:10;20.20;;;4.13;;
73954;SDS011;62306;52.516;13.290;2023-04-25T09:49:38;15.23;;;3.35;;
73954;SDS011;62306;52.516;13.290;2023-04-25T09:52:07;11.85;;;3.20;;
73954;SDS011;62306;52.516;13.290;2023-04-25T09:54:37;13.90;;;3.08;;
73954;SDS011;62306;52.516;13.290;2023-04-25T09:57:06;18.23;;;3.00;;
73954;SDS011;62306;52.516;13.290;2023-04-25T09:59:38;10.50;;;3.85;;
73954;SDS011;62306;52.516;13.290;2023-04-25T10:02:08;16.90;;;2.92;;
73954;SDS011;62306;52.516;13.290;2023-04-25T10:04:36;20.52;;;3.90;;
73954;SDS011;62306;52.516;13.290;2023-04-25T10:07:05;14.68;;;2.83;;
73954;SDS011;62306;52.516;13.290;2023-04-25T10:09:33;17.45;;;3.58;;
73954;SDS011;62306;52.516;13.290;2023-04-25T10:12:04;11.80;;;2.58;;
73954;SDS011;62306;52.516;13.290;2023-04-25T10:14:32;13.75;;;3.17;;
73954;SDS011;62306;52.516;13.290;2023-04-25T10:16:59;13.45;;;3.15;;
73954;SDS011;62306;52.516;13.290;2023-04-25T10:19:27;18.83;;;3.05;;
73954;SDS011;62306;52.516;13.290;2023-04-25T10:21:56;15.18;;;2.85;;
73954;SDS011;62306;52.516;13.290;2023-04-25T10:24:29;11.52;;;2.83;;
73954;SDS011;62306;52.516;13.290;2023-04-25T10:26:58;17.00;;;3.55;;
73954;SDS011;62306;52.516;13.290;2023-04-25T10:29:26;17.23;;;3.20;;
73954;SDS011;62306;52.516;13.290;2023-04-25T10:31:53;12.07;;;3.05;;
73954;SDS011;62306;52.516;13.290;2023-04-25T10:34:23;17.00;;;2.55;;
73954;SDS011;62306;52.516;13.290;2023-04-25T10:37:03;10.27;;;2.60;;
73954;SDS011;62306;52.516;13.290;2023-04-25T10:39:32;10.98;;;2.17;;
73954;SDS011;62306;52.516;13.290;2023-04-25T10:42:01;10.35;;;2.28;;
73954;SDS011;62306;52.516;13.290;2023-04-25T10:44:29;11.48;;;3.15;;
73954;SDS011;62306;52.516;13.290;2023-04-25T10:46:58;10.23;;;3.58;;
73954;SDS011;62306;52.516;13.290;2023-04-25T10:49:30;17.90;;;2.28;;
73954;SDS011;62306;52.516;13.290;2023-04-25T10:52:11;11.85;;;2.72;;
73954;SDS011;62306;52.516;13.290;2023-04-25T10:54:40;10.23;;;2.47;;
73954;SDS011;62306;52.516;13.290;2023-04-25T10:59:58;11.35;;;2.53;;
73954;SDS011;62306;52.516;13.290;2023-04-25T11:02:36;8.23;;;2.13;;
73954;SDS011;62306;52.516;13.290;2023-04-25T11:05:07;9.43;;;2.30;;
73954;SDS011;62306;52.516;13.290;2023-04-25T11:07:37;9.85;;;2.40;;
73954;SDS011;62306;52.516;13.290;2023-04-25T11:10:05;10.95;;;2.38;;
73954;SDS011;62306;52.516;13.290;2023-04-25T11:12:34;12.23;;;4.32;;
73954;SDS011;62306;52.516;13.290;2023-04-25T11:15:02;14.45;;;2.88;;
73954;SDS011;62306;52.516;13.290;2023-04-25T11:17:30;17.38;;;3.03;;
73954;SDS011;62306;52.516;13.290;2023-04-25T11:19:58;17.73;;;3.08;;
73954;SDS011;62306;52.516;13.290;2023-04-25T11:22:26;13.05;;;2.65;;
73954;SDS011;62306;52.516;13.290;2023-04-25T11:24:53;12.90;;;2.47;;
73954;SDS011;62306;52.516;13.290;2023-04-25T11:27:20;7.05;;;2.10;;
73954;SDS011;62306;52.516;13.290;2023-04-25T11:29:51;8.70;;;2.70;;
73954;SDS011;62306;52.516;13.290;2023-04-25T11:32:18;6.35;;;2.40;;
73954;SDS011;62306;52.516;13.290;2023-04-25T11:34:46;8.55;;;2.20;;
73954;SDS011;62306;52.516;13.290;2023-04-25T11:37:13;8.70;;;2.13;;
73954;SDS011;62306;52.516;13.290;2023-04-25T11:39:43;11.63;;;2.08;;
73954;SDS011;62306;52.516;13.290;2023-04-25T11:42:14;13.55;;;2.33;;
73954;SDS011;62306;52.516;13.290;2023-04-25T11:44:41;11.70;;;2.40;;
73954;SDS011;62306;52.516;13.290;2023-04-25T11:47:09;8.10;;;2.20;;
73954;SDS011;62306;52.516;13.290;2023-04-25T11:49:36;8.23;;;2.00;;
73954;SDS011;62306;52.516;13.290;2023-04-25T11:52:03;9.85;;;2.50;;
73954;SDS011;62306;52.516;13.290;2023-04-25T11:54:34;9.32;;;2.40;;
73954;SDS011;62306;52.516;13.290;2023-04-25T11:57:02;6.57;;;2.72;;
73954;SDS011;62306;52.516;13.290;2023-04-25T11:59:29;13.10;;;2.60;;
73954;SDS011;62306;52.516;13.290;2023-04-25T12:01:56;11.25;;;2.47;;
73954;SDS011;62306;52.516;13.290;2023-04-25T12:04:26;13.27;;;2.80;;
73954;SDS011;62306;52.516;13.290;2023-04-25T12:06:56;10.15;;;2.60;;
73954;SDS011;62306;52.516;13.290;2023-04-25T12:09:27;11.55;;;2.45;;
73954;SDS011;62306;52.516;13.290;2023-04-25T12:11:55;9.07;;;1.80;;
73954;SDS011;62306;52.516;13.290;2023-04-25T12:14:24;9.80;;;2.42;;
73954;SDS011;62306;52.516;13.290;2023-04-25T12:16:52;12.18;;;2.35;;
73954;SDS011;62306;52.516;13.290;2023-04-25T12:19:22;11.10;;;2.78;;
73954;SDS011;62306;52.516;13.290;2023-04-25T12:21:51;12.00;;;2.38;;
73954;SDS011;62306;52.516;13.290;2023-04-25T12:24:21;9.82;;;2.28;;
73954;SDS011;62306;52.516;13.290;2023-04-25T12:26:50;13.13;;;2.00;;
73954;SDS011;62306;52.516;13.290;2023-04-25T12:29:19;5.68;;;2.30;;
73954;SDS011;62306;52.516;13.290;2023-04-25T12:31:47;18.55;;;3.80;;
73954;SDS011;62306;52.516;13.290;2023-04-25T12:34:15;11.73;;;2.42;;
73954;SDS011;62306;52.516;13.290;2023-04-25T12:36:42;12.07;;;2.40;;
73954;SDS011;62306;52.516;13.290;2023-04-25T12:39:15;9.23;;;2.33;;
73954;SDS011;62306;52.516;13.290;2023-04-25T12:41:43;8.35;;;2.55;;
73954;SDS011;62306;52.516;13.290;2023-04-25T12:44:10;10.65;;;3.47;;
73954;SDS011;62306;52.516;13.290;2023-04-25T12:46:38;12.55;;;2.38;;
73954;SDS011;62306;52.516;13.290;2023-04-25T12:49:05;7.60;;;1.85;;
73954;SDS011;62306;52.516;13.290;2023-04-25T12:51:33;9.00;;;3.10;;
73954;SDS011;62306;52.516;13.290;2023-04-25T12:54:00;14.98;;;2.90;;
73954;SDS011;62306;52.516;13.290;2023-04-25T12:56:29;5.90;;;2.10;;
73954;SDS011;62306;52.516;13.290;2023-04-25T12:58:56;8.25;;;2.10;;
73954;SDS011;62306;52.516;13.290;2023-04-25T13:01:23;5.15;;;2.17;;
73954;SDS011;62306;52.516;13.290;2023-04-25T13:03:51;5.60;;;1.85;;
73954;SDS011;62306;52.516;13.290;2023-04-25T13:06:19;8.13;;;2.40;;
73954;SDS011;62306;52.516;13.290;2023-04-25T13:08:46;6.85;;;1.63;;
73954;SDS011;62306;52.516;13.290;2023-04-25T13:11:13;6.28;;;1.77;;
73954;SDS011;62306;52.516;13.290;2023-04-25T13:13:42;6.32;;;1.55;;
73954;SDS011;62306;52.516;13.290;2023-04-25T13:16:10;5.05;;;1.50;;
73954;SDS011;62306;52.516;13.290;2023-04-25T13:18:39;5.03;;;1.40;;
73954;SDS011;62306;52.516;13.290;2023-04-25T13:21:06;3.65;;;1.60;;
73954;SDS011;62306;52.516;13.290;2023-04-25T13:23:35;6.70;;;2.00;;
73954;SDS011;62306;52.516;13.290;2023-04-25T13:26:03;6.45;;;1.85;;
73954;SDS011;62306;52.516;13.290;2023-04-25T13:28:30;6.68;;;1.63;;
73954;SDS011;62306;52.516;13.290;2023-04-25T13:30:59;11.95;;;2.70;;
73954;SDS011;62306;52.516;13.290;2023-04-25T13:33:25;7.30;;;2.35;;
73954;SDS011;62306;52.516;13.290;2023-04-25T13:35:52;9.18;;;2.67;;
73954;SDS011;62306;52.516;13.290;2023-04-25T13:38:21;5.47;;;1.83;;
73954;SDS011;62306;52.516;13.290;2023-04-25T13:40:48;9.35;;;2.10;;
73954;SDS011;62306;52.516;13.290;2023-04-25T13:43:17;7.22;;;2.03;;
73954;SDS011;62306;52.516;13.290;2023-04-25T13:45:45;6.68;;;1.70;;
73954;SDS011;62306;52.516;13.290;2023-04-25T13:48:13;6.07;;;1.88;;
73954;SDS011;62306;52.516;13.290;2023-04-25T13:50:40;7.95;;;2.03;;
73954;SDS011;62306;52.516;13.290;2023-04-25T13:53:07;6.70;;;1.90;;
73954;SDS011;62306;52.516;13.290;2023-04-25T13:55:34;11.70;;;2.20;;
73954;SDS011;62306;52.516;13.290;2023-04-25T13:58:02;7.47;;;1.77;;
73954;SDS011;62306;52.516;13.290;2023-04-25T14:00:32;6.65;;;2.17;;
73954;SDS011;62306;52.516;13.290;2023-04-25T14:03:00;9.98;;;2.13;;
73954;SDS011;62306;52.516;13.290;2023-04-25T14:05:31;7.10;;;1.98;;
73954;SDS011;62306;52.516;13.290;2023-04-25T14:08:00;5.97;;;2.00;;
73954;SDS011;62306;52.516;13.290;2023-04-25T14:10:27;11.82;;;2.30;;
73954;SDS011;62306;52.516;13.290;2023-04-25T14:12:53;8.68;;;2.50;;
73954;SDS011;62306;52.516;13.290;2023-04-25T14:15:20;10.45;;;1.88;;
73954;SDS011;62306;52.516;13.290;2023-04-25T14:17:47;5.25;;;1.98;;
73954;SDS011;62306;52.516;13.290;2023-04-25T14:20:15;8.43;;;1.70;;
73954;SDS011;62306;52.516;13.290;2023-04-25T14:22:46;3.47;;;1.20;;
73954;SDS011;62306;52.516;13.290;2023-04-25T14:25:13;8.43;;;1.60;;
73954;SDS011;62306;52.516;13.290;2023-04-25T14:27:40;8.05;;;1.60;;
73954;SDS011;62306;52.516;13.290;2023-04-25T14:30:08;11.13;;;1.70;;
73954;SDS011;62306;52.516;13.290;2023-04-25T14:32:36;7.03;;;1.75;;
73954;SDS011;62306;52.516;13.290;2023-04-25T14:35:04;5.85;;;1.60;;
73954;SDS011;62306;52.516;13.290;2023-04-25T14:37:32;4.50;;;1.35;;